Terminal Aerodrome Forecast
Issued by NWS Kansas City/Pleasant Hill, MO

Home | Current Version | Previous Version | Text Only | Print | Product List | Glossary On
Versions: 1 2 3 4 5 6 7 8 9 10 11 12 13 14 15 16 17 18 19 20 21 22
000
FTUS43 KEAX 230520
TAFMCI
TAF
KMCI 230520Z 2306/2406 15009KT P6SM SCT200
     FM230900 16010KT P6SM BKN040
     FM231500 17014G23KT P6SM VCTS SCT025 BKN040CB
     FM231800 17015G24KT P6SM -TSRA BKN040CB
     FM232200 17013KT P6SM VCTS BKN040CB=

USA.gov is the U.S. government's official web portal to all federal, state and local government web resources and services.